sensor_id;sensor_type;location;lat;lon;timestamp;temperature;humidity
35613;DHT22;22054;51.646;7.078;2022-12-10T00:01:14;1.80;99.90
35613;DHT22;22054;51.646;7.078;2022-12-10T00:03:45;1.80;99.90
35613;DHT22;22054;51.646;7.078;2022-12-10T00:06:16;1.80;99.90
35613;DHT22;22054;51.646;7.078;2022-12-10T00:08:44;1.80;99.90
35613;DHT22;22054;51.646;7.078;2022-12-10T00:11:11;1.80;99.90
35613;DHT22;22054;51.646;7.078;2022-12-10T00:13:38;1.80;99.90
35613;DHT22;22054;51.646;7.078;2022-12-10T00:16:06;1.80;99.90
35613;DHT22;22054;51.646;7.078;2022-12-10T00:18:36;1.80;99.90
35613;DHT22;22054;51.646;7.078;2022-12-10T00:21:04;1.70;99.90
35613;DHT22;22054;51.646;7.078;2022-12-10T00:23:30;1.80;99.90
35613;DHT22;22054;51.646;7.078;2022-12-10T00:26:11;1.80;99.90
35613;DHT22;22054;51.646;7.078;2022-12-10T00:28:39;1.80;99.90
35613;DHT22;22054;51.646;7.078;2022-12-10T00:31:07;1.80;99.90
35613;DHT22;22054;51.646;7.078;2022-12-10T00:33:40;1.80;99.90
35613;DHT22;22054;51.646;7.078;2022-12-10T00:36:15;1.80;99.90
35613;DHT22;22054;51.646;7.078;2022-12-10T00:38:46;1.70;99.90
35613;DHT22;22054;51.646;7.078;2022-12-10T00:41:13;1.70;99.90
35613;DHT22;22054;51.646;7.078;2022-12-10T00:43:40;1.70;99.90
35613;DHT22;22054;51.646;7.078;2022-12-10T00:46:06;1.70;99.90
35613;DHT22;22054;51.646;7.078;2022-12-10T00:48:32;1.70;99.90
35613;DHT22;22054;51.646;7.078;2022-12-10T00:51:12;1.70;99.90
35613;DHT22;22054;51.646;7.078;2022-12-10T00:53:41;1.70;99.90
35613;DHT22;22054;51.646;7.078;2022-12-10T00:56:12;1.70;99.90
35613;DHT22;22054;51.646;7.078;2022-12-10T00:58:39;1.70;99.90
35613;DHT22;22054;51.646;7.078;2022-12-10T01:03:39;1.60;99.90
35613;DHT22;22054;51.646;7.078;2022-12-10T01:06:26;1.60;99.90
35613;DHT22;22054;51.646;7.078;2022-12-10T01:09:05;1.50;99.90
35613;DHT22;22054;51.646;7.078;2022-12-10T01:11:35;1.50;99.90
35613;DHT22;22054;51.646;7.078;2022-12-10T01:14:07;1.50;99.90
35613;DHT22;22054;51.646;7.078;2022-12-10T01:16:34;1.50;99.90
35613;DHT22;22054;51.646;7.078;2022-12-10T01:19:00;1.50;99.90
35613;DHT22;22054;51.646;7.078;2022-12-10T01:21:28;1.50;99.90
35613;DHT22;22054;51.646;7.078;2022-12-10T01:23:55;1.50;99.90
35613;DHT22;22054;51.646;7.078;2022-12-10T01:26:27;1.50;99.90
35613;DHT22;22054;51.646;7.078;2022-12-10T01:28:55;1.50;99.90
35613;DHT22;22054;51.646;7.078;2022-12-10T01:31:26;1.60;99.90
35613;DHT22;22054;51.646;7.078;2022-12-10T01:33:53;1.60;99.90
35613;DHT22;22054;51.646;7.078;2022-12-10T01:36:36;1.60;99.90
35613;DHT22;22054;51.646;7.078;2022-12-10T01:39:04;1.60;99.90
35613;DHT22;22054;51.646;7.078;2022-12-10T01:41:42;1.60;99.90
35613;DHT22;22054;51.646;7.078;2022-12-10T01:46:46;1.60;99.90
35613;DHT22;22054;51.646;7.078;2022-12-10T01:49:17;1.70;99.90
35613;DHT22;22054;51.646;7.078;2022-12-10T01:51:48;1.60;99.90
35613;DHT22;22054;51.646;7.078;2022-12-10T01:54:19;1.60;99.90
35613;DHT22;22054;51.646;7.078;2022-12-10T01:57:15;1.60;99.90
35613;DHT22;22054;51.646;7.078;2022-12-10T01:59:45;1.60;99.90
35613;DHT22;22054;51.646;7.078;2022-12-10T02:05:20;1.50;99.90
35613;DHT22;22054;51.646;7.078;2022-12-10T02:07:59;1.40;99.90
35613;DHT22;22054;51.646;7.078;2022-12-10T02:10:58;1.40;99.90
35613;DHT22;22054;51.646;7.078;2022-12-10T02:14:15;1.30;99.90
35613;DHT22;22054;51.646;7.078;2022-12-10T02:16:51;1.30;99.90
35613;DHT22;22054;51.646;7.078;2022-12-10T02:19:58;1.20;99.90
35613;DHT22;22054;51.646;7.078;2022-12-10T02:22:33;1.00;99.90
35613;DHT22;22054;51.646;7.078;2022-12-10T02:25:06;0.90;99.90
35613;DHT22;22054;51.646;7.078;2022-12-10T02:27:42;0.90;99.90
35613;DHT22;22054;51.646;7.078;2022-12-10T02:30:13;0.90;99.90
35613;DHT22;22054;51.646;7.078;2022-12-10T02:32:41;0.80;99.90
35613;DHT22;22054;51.646;7.078;2022-12-10T02:35:16;0.70;99.90
35613;DHT22;22054;51.646;7.078;2022-12-10T02:37:50;0.80;99.90
35613;DHT22;22054;51.646;7.078;2022-12-10T02:40:20;0.70;99.90
35613;DHT22;22054;51.646;7.078;2022-12-10T02:42:52;0.80;99.90
35613;DHT22;22054;51.646;7.078;2022-12-10T02:45:20;0.80;99.90
35613;DHT22;22054;51.646;7.078;2022-12-10T02:47:48;0.70;99.90
35613;DHT22;22054;51.646;7.078;2022-12-10T02:50:15;0.70;99.90
35613;DHT22;22054;51.646;7.078;2022-12-10T02:52:43;0.80;99.90
35613;DHT22;22054;51.646;7.078;2022-12-10T02:55:12;0.80;99.90
35613;DHT22;22054;51.646;7.078;2022-12-10T02:57:59;0.80;99.90
35613;DHT22;22054;51.646;7.078;2022-12-10T03:00:43;0.80;99.90
35613;DHT22;22054;51.646;7.078;2022-12-10T03:06:22;1.00;99.90
35613;DHT22;22054;51.646;7.078;2022-12-10T03:09:05;0.90;99.90
35613;DHT22;22054;51.646;7.078;2022-12-10T03:11:40;1.00;99.90
35613;DHT22;22054;51.646;7.078;2022-12-10T03:14:24;1.00;99.90
35613;DHT22;22054;51.646;7.078;2022-12-10T03:16:56;1.00;99.90
35613;DHT22;22054;51.646;7.078;2022-12-10T03:19:28;1.00;99.90
35613;DHT22;22054;51.646;7.078;2022-12-10T03:22:03;1.00;99.90
35613;DHT22;22054;51.646;7.078;2022-12-10T03:24:33;1.00;99.90
35613;DHT22;22054;51.646;7.078;2022-12-10T03:27:03;1.00;99.90
35613;DHT22;22054;51.646;7.078;2022-12-10T03:29:32;1.10;99.90
35613;DHT22;22054;51.646;7.078;2022-12-10T03:32:02;1.00;99.90
35613;DHT22;22054;51.646;7.078;2022-12-10T03:34:28;1.00;99.90
35613;DHT22;22054;51.646;7.078;2022-12-10T03:36:54;0.90;99.90
35613;DHT22;22054;51.646;7.078;2022-12-10T03:39:20;0.90;99.90
35613;DHT22;22054;51.646;7.078;2022-12-10T03:41:46;0.80;99.90
35613;DHT22;22054;51.646;7.078;2022-12-10T03:44:12;0.80;99.90
35613;DHT22;22054;51.646;7.078;2022-12-10T03:46:37;0.70;99.90
35613;DHT22;22054;51.646;7.078;2022-12-10T03:49:04;0.60;99.90
35613;DHT22;22054;51.646;7.078;2022-12-10T03:51:29;0.50;99.90
35613;DHT22;22054;51.646;7.078;2022-12-10T03:53:55;0.40;99.90
35613;DHT22;22054;51.646;7.078;2022-12-10T03:56:21;0.30;99.90
35613;DHT22;22054;51.646;7.078;2022-12-10T03:58:47;0.20;99.90
35613;DHT22;22054;51.646;7.078;2022-12-10T04:01:14;0.10;99.90
35613;DHT22;22054;51.646;7.078;2022-12-10T04:03:41;0.00;99.90
35613;DHT22;22054;51.646;7.078;2022-12-10T04:06:16;-0.10;99.90
35613;DHT22;22054;51.646;7.078;2022-12-10T04:08:43;-0.20;99.90
35613;DHT22;22054;51.646;7.078;2022-12-10T04:11:10;-0.20;99.90
35613;DHT22;22054;51.646;7.078;2022-12-10T04:13:38;-0.30;99.90
35613;DHT22;22054;51.646;7.078;2022-12-10T04:16:24;-0.40;99.90
35613;DHT22;22054;51.646;7.078;2022-12-10T04:18:53;-0.40;99.90
35613;DHT22;22054;51.646;7.078;2022-12-10T04:21:20;-0.40;99.90
35613;DHT22;22054;51.646;7.078;2022-12-10T04:24:05;-0.50;99.90
35613;DHT22;22054;51.646;7.078;2022-12-10T04:26:50;-0.50;99.90
35613;DHT22;22054;51.646;7.078;2022-12-10T04:29:24;-0.50;99.90
35613;DHT22;22054;51.646;7.078;2022-12-10T04:31:52;-0.50;99.90
35613;DHT22;22054;51.646;7.078;2022-12-10T04:34:22;-0.60;99.90
35613;DHT22;22054;51.646;7.078;2022-12-10T04:36:48;-0.70;99.90
35613;DHT22;22054;51.646;7.078;2022-12-10T04:39:15;-0.70;99.90
35613;DHT22;22054;51.646;7.078;2022-12-10T04:41:42;-0.70;99.90
35613;DHT22;22054;51.646;7.078;2022-12-10T04:44:10;-0.70;99.90
35613;DHT22;22054;51.646;7.078;2022-12-10T04:46:36;-0.70;99.90
35613;DHT22;22054;51.646;7.078;2022-12-10T04:49:03;-0.80;99.90
35613;DHT22;22054;51.646;7.078;2022-12-10T04:51:29;-0.80;99.90
35613;DHT22;22054;51.646;7.078;2022-12-10T04:53:55;-0.70;99.90
35613;DHT22;22054;51.646;7.078;2022-12-10T04:56:21;-0.70;99.90
35613;DHT22;22054;51.646;7.078;2022-12-10T04:58:47;-0.70;99.90
35613;DHT22;22054;51.646;7.078;2022-12-10T05:01:13;-0.70;99.90
35613;DHT22;22054;51.646;7.078;2022-12-10T05:03:39;-0.70;99.90
35613;DHT22;22054;51.646;7.078;2022-12-10T05:06:07;-0.70;99.90
35613;DHT22;22054;51.646;7.078;2022-12-10T05:08:36;-0.60;99.90
35613;DHT22;22054;51.646;7.078;2022-12-10T05:11:04;-0.60;99.90
35613;DHT22;22054;51.646;7.078;2022-12-10T05:13:38;-0.70;99.90
35613;DHT22;22054;51.646;7.078;2022-12-10T05:16:05;-0.70;99.90
35613;DHT22;22054;51.646;7.078;2022-12-10T05:18:35;-0.70;99.90
35613;DHT22;22054;51.646;7.078;2022-12-10T05:21:03;-0.70;99.90
35613;DHT22;22054;51.646;7.078;2022-12-10T05:23:31;-0.70;99.90
35613;DHT22;22054;51.646;7.078;2022-12-10T05:26:07;-0.70;99.90
35613;DHT22;22054;51.646;7.078;2022-12-10T05:28:45;-0.70;99.90
35613;DHT22;22054;51.646;7.078;2022-12-10T05:31:17;-0.70;99.90
35613;DHT22;22054;51.646;7.078;2022-12-10T05:33:47;-0.90;99.90
35613;DHT22;22054;51.646;7.078;2022-12-10T05:36:14;-0.80;99.90
35613;DHT22;22054;51.646;7.078;2022-12-10T05:38:44;-0.90;99.90
35613;DHT22;22054;51.646;7.078;2022-12-10T05:41:24;-0.90;99.90
35613;DHT22;22054;51.646;7.078;2022-12-10T05:43:54;-0.80;99.90
35613;DHT22;22054;51.646;7.078;2022-12-10T05:46:23;-0.80;99.90
35613;DHT22;22054;51.646;7.078;2022-12-10T05:48:50;-0.80;99.90
35613;DHT22;22054;51.646;7.078;2022-12-10T05:51:19;-0.90;99.90
35613;DHT22;22054;51.646;7.078;2022-12-10T05:53:46;-0.90;99.90
35613;DHT22;22054;51.646;7.078;2022-12-10T05:56:14;-0.80;99.90
35613;DHT22;22054;51.646;7.078;2022-12-10T05:58:43;-0.80;99.90
35613;DHT22;22054;51.646;7.078;2022-12-10T06:01:14;-0.70;99.90
35613;DHT22;22054;51.646;7.078;2022-12-10T06:03:42;-0.60;99.90
35613;DHT22;22054;51.646;7.078;2022-12-10T06:06:08;-0.60;99.90
35613;DHT22;22054;51.646;7.078;2022-12-10T06:08:35;-0.70;99.90
35613;DHT22;22054;51.646;7.078;2022-12-10T06:11:07;-0.70;99.90
35613;DHT22;22054;51.646;7.078;2022-12-10T06:13:34;-0.80;99.90
35613;DHT22;22054;51.646;7.078;2022-12-10T06:16:05;-0.80;99.90
35613;DHT22;22054;51.646;7.078;2022-12-10T06:18:31;-0.70;99.90
35613;DHT22;22054;51.646;7.078;2022-12-10T06:20:57;-0.80;99.90
35613;DHT22;22054;51.646;7.078;2022-12-10T06:23:22;-0.90;99.90
35613;DHT22;22054;51.646;7.078;2022-12-10T06:25:48;-1.00;99.90
35613;DHT22;22054;51.646;7.078;2022-12-10T06:28:14;-1.00;99.90
35613;DHT22;22054;51.646;7.078;2022-12-10T06:30:39;-1.10;99.90
35613;DHT22;22054;51.646;7.078;2022-12-10T06:33:05;-1.10;99.90
35613;DHT22;22054;51.646;7.078;2022-12-10T06:35:31;-1.10;99.90
35613;DHT22;22054;51.646;7.078;2022-12-10T06:37:57;-1.20;99.90
35613;DHT22;22054;51.646;7.078;2022-12-10T06:40:22;-1.20;99.90
35613;DHT22;22054;51.646;7.078;2022-12-10T06:42:51;-1.20;99.90
35613;DHT22;22054;51.646;7.078;2022-12-10T06:45:17;-1.30;99.90
35613;DHT22;22054;51.646;7.078;2022-12-10T06:47:42;-1.20;99.90
35613;DHT22;22054;51.646;7.078;2022-12-10T06:50:09;-1.30;99.90
35613;DHT22;22054;51.646;7.078;2022-12-10T06:52:34;-1.30;99.90
35613;DHT22;22054;51.646;7.078;2022-12-10T06:55:00;-1.30;99.90
35613;DHT22;22054;51.646;7.078;2022-12-10T06:57:27;-1.30;99.90
35613;DHT22;22054;51.646;7.078;2022-12-10T06:59:53;-1.30;99.90
35613;DHT22;22054;51.646;7.078;2022-12-10T07:02:19;-1.30;99.90
35613;DHT22;22054;51.646;7.078;2022-12-10T07:04:44;-1.30;99.90
35613;DHT22;22054;51.646;7.078;2022-12-10T07:07:10;-1.30;99.90
35613;DHT22;22054;51.646;7.078;2022-12-10T07:09:39;-1.40;99.90
35613;DHT22;22054;51.646;7.078;2022-12-10T07:12:05;-1.40;99.90
35613;DHT22;22054;51.646;7.078;2022-12-10T07:14:30;-1.40;99.90
35613;DHT22;22054;51.646;7.078;2022-12-10T07:16:56;-1.40;99.90
35613;DHT22;22054;51.646;7.078;2022-12-10T07:19:22;-1.40;99.90
35613;DHT22;22054;51.646;7.078;2022-12-10T07:21:47;-1.40;99.90
35613;DHT22;22054;51.646;7.078;2022-12-10T07:24:15;-1.40;99.90
35613;DHT22;22054;51.646;7.078;2022-12-10T07:26:44;-1.20;99.90
35613;DHT22;22054;51.646;7.078;2022-12-10T07:29:14;-1.30;99.90
35613;DHT22;22054;51.646;7.078;2022-12-10T07:31:45;-1.20;99.90
35613;DHT22;22054;51.646;7.078;2022-12-10T07:34:11;-1.10;99.90
35613;DHT22;22054;51.646;7.078;2022-12-10T07:36:38;-0.90;99.90
35613;DHT22;22054;51.646;7.078;2022-12-10T07:39:09;-0.80;99.90
35613;DHT22;22054;51.646;7.078;2022-12-10T07:41:35;-0.70;99.90
35613;DHT22;22054;51.646;7.078;2022-12-10T07:44:03;-0.50;99.90
35613;DHT22;22054;51.646;7.078;2022-12-10T07:46:31;-0.50;99.90
35613;DHT22;22054;51.646;7.078;2022-12-10T07:49:00;-0.30;99.90
35613;DHT22;22054;51.646;7.078;2022-12-10T07:51:26;-0.30;99.90
35613;DHT22;22054;51.646;7.078;2022-12-10T07:53:53;-0.20;99.90
35613;DHT22;22054;51.646;7.078;2022-12-10T07:56:20;-0.20;99.90
35613;DHT22;22054;51.646;7.078;2022-12-10T07:58:47;0.00;99.90
35613;DHT22;22054;51.646;7.078;2022-12-10T08:01:19;0.00;99.90
35613;DHT22;22054;51.646;7.078;2022-12-10T08:03:47;0.10;99.90
35613;DHT22;22054;51.646;7.078;2022-12-10T08:06:19;0.10;99.90
35613;DHT22;22054;51.646;7.078;2022-12-10T08:08:46;0.20;99.90
35613;DHT22;22054;51.646;7.078;2022-12-10T08:11:18;0.20;99.90
35613;DHT22;22054;51.646;7.078;2022-12-10T08:13:50;0.30;99.90
35613;DHT22;22054;51.646;7.078;2022-12-10T08:16:19;0.50;99.90
35613;DHT22;22054;51.646;7.078;2022-12-10T08:18:50;0.40;99.90
35613;DHT22;22054;51.646;7.078;2022-12-10T08:21:19;0.50;99.90
35613;DHT22;22054;51.646;7.078;2022-12-10T08:23:49;0.60;99.90
35613;DHT22;22054;51.646;7.078;2022-12-10T08:26:19;0.70;99.90
35613;DHT22;22054;51.646;7.078;2022-12-10T08:28:50;0.70;99.90
35613;DHT22;22054;51.646;7.078;2022-12-10T08:31:18;0.70;99.90
35613;DHT22;22054;51.646;7.078;2022-12-10T08:33:47;0.70;99.90
35613;DHT22;22054;51.646;7.078;2022-12-10T08:36:17;0.80;99.90
35613;DHT22;22054;51.646;7.078;2022-12-10T08:38:44;0.90;99.90
35613;DHT22;22054;51.646;7.078;2022-12-10T08:41:21;1.10;99.90
35613;DHT22;22054;51.646;7.078;2022-12-10T08:43:48;1.00;99.90
35613;DHT22;22054;51.646;7.078;2022-12-10T08:46:16;1.10;99.90
35613;DHT22;22054;51.646;7.078;2022-12-10T08:48:43;1.10;99.90
35613;DHT22;22054;51.646;7.078;2022-12-10T08:51:11;1.10;99.90
35613;DHT22;22054;51.646;7.078;2022-12-10T08:53:39;1.20;99.90
35613;DHT22;22054;51.646;7.078;2022-12-10T08:56:11;1.30;99.90
35613;DHT22;22054;51.646;7.078;2022-12-10T08:58:38;1.20;99.90
35613;DHT22;22054;51.646;7.078;2022-12-10T09:01:15;1.20;99.90
35613;DHT22;22054;51.646;7.078;2022-12-10T09:03:47;1.20;99.90
35613;DHT22;22054;51.646;7.078;2022-12-10T09:06:16;1.00;99.90
35613;DHT22;22054;51.646;7.078;2022-12-10T09:08:44;1.30;99.90
35613;DHT22;22054;51.646;7.078;2022-12-10T09:11:16;1.30;99.90
35613;DHT22;22054;51.646;7.078;2022-12-10T09:13:53;1.30;99.90
35613;DHT22;22054;51.646;7.078;2022-12-10T09:16:33;1.30;99.90
35613;DHT22;22054;51.646;7.078;2022-12-10T09:19:00;1.30;99.90
35613;DHT22;22054;51.646;7.078;2022-12-10T09:21:29;1.30;99.90
35613;DHT22;22054;51.646;7.078;2022-12-10T09:24:01;1.30;99.90
35613;DHT22;22054;51.646;7.078;2022-12-10T09:26:27;1.30;99.90
35613;DHT22;22054;51.646;7.078;2022-12-10T09:28:59;1.20;99.90
35613;DHT22;22054;51.646;7.078;2022-12-10T09:31:27;1.20;99.90
35613;DHT22;22054;51.646;7.078;2022-12-10T09:33:54;1.20;99.90
35613;DHT22;22054;51.646;7.078;2022-12-10T09:36:20;1.30;99.90
35613;DHT22;22054;51.646;7.078;2022-12-10T09:38:47;1.20;99.90
35613;DHT22;22054;51.646;7.078;2022-12-10T09:41:36;1.20;99.90
35613;DHT22;22054;51.646;7.078;2022-12-10T09:44:27;1.30;99.90
35613;DHT22;22054;51.646;7.078;2022-12-10T09:47:14;1.40;99.90
35613;DHT22;22054;51.646;7.078;2022-12-10T09:49:59;1.40;99.90
35613;DHT22;22054;51.646;7.078;2022-12-10T09:52:36;1.40;99.90
35613;DHT22;22054;51.646;7.078;2022-12-10T09:55:37;1.40;99.90
35613;DHT22;22054;51.646;7.078;2022-12-10T09:58:16;1.50;99.90
35613;DHT22;22054;51.646;7.078;2022-12-10T10:00:46;1.50;99.90
35613;DHT22;22054;51.646;7.078;2022-12-10T10:03:15;1.50;99.90
35613;DHT22;22054;51.646;7.078;2022-12-10T10:05:44;1.50;99.90
35613;DHT22;22054;51.646;7.078;2022-12-10T10:08:34;1.50;99.90
35613;DHT22;22054;51.646;7.078;2022-12-10T10:11:03;1.50;99.90
35613;DHT22;22054;51.646;7.078;2022-12-10T10:13:39;1.50;99.90
35613;DHT22;22054;51.646;7.078;2022-12-10T10:16:14;1.50;99.90
35613;DHT22;22054;51.646;7.078;2022-12-10T10:18:48;1.60;99.90
35613;DHT22;22054;51.646;7.078;2022-12-10T10:21:27;1.60;99.90
35613;DHT22;22054;51.646;7.078;2022-12-10T10:23:55;1.60;99.90
35613;DHT22;22054;51.646;7.078;2022-12-10T10:26:24;1.70;99.90
35613;DHT22;22054;51.646;7.078;2022-12-10T10:28:59;1.60;99.90
35613;DHT22;22054;51.646;7.078;2022-12-10T10:31:29;1.60;99.90
35613;DHT22;22054;51.646;7.078;2022-12-10T10:34:02;1.50;99.90
35613;DHT22;22054;51.646;7.078;2022-12-10T10:36:35;1.40;99.90
35613;DHT22;22054;51.646;7.078;2022-12-10T10:41:56;1.50;99.90
35613;DHT22;22054;51.646;7.078;2022-12-10T10:44:33;1.40;99.90
35613;DHT22;22054;51.646;7.078;2022-12-10T10:47:00;1.40;99.90
35613;DHT22;22054;51.646;7.078;2022-12-10T10:49:26;1.30;99.90
35613;DHT22;22054;51.646;7.078;2022-12-10T10:52:14;1.30;99.90
35613;DHT22;22054;51.646;7.078;2022-12-10T10:54:44;1.30;99.90
35613;DHT22;22054;51.646;7.078;2022-12-10T10:57:37;1.40;99.90
35613;DHT22;22054;51.646;7.078;2022-12-10T11:00:19;1.40;99.90
35613;DHT22;22054;51.646;7.078;2022-12-10T11:02:48;1.40;99.90
35613;DHT22;22054;51.646;7.078;2022-12-10T11:05:26;1.40;99.90
35613;DHT22;22054;51.646;7.078;2022-12-10T11:08:05;1.40;99.90
35613;DHT22;22054;51.646;7.078;2022-12-10T11:10:33;1.40;99.90
35613;DHT22;22054;51.646;7.078;2022-12-10T11:15:41;1.50;99.90
35613;DHT22;22054;51.646;7.078;2022-12-10T11:23:49;1.50;99.90
35613;DHT22;22054;51.646;7.078;2022-12-10T11:35:12;1.20;99.90
35613;DHT22;22054;51.646;7.078;2022-12-10T11:37:57;1.10;99.90
35613;DHT22;22054;51.646;7.078;2022-12-10T11:44:05;1.10;99.90
35613;DHT22;22054;51.646;7.078;2022-12-10T11:46:55;1.30;99.90
35613;DHT22;22054;51.646;7.078;2022-12-10T11:55:50;1.30;99.90
35613;DHT22;22054;51.646;7.078;2022-12-10T11:58:52;1.30;99.90
35613;DHT22;22054;51.646;7.078;2022-12-10T12:15:50;1.40;99.90
35613;DHT22;22054;51.646;7.078;2022-12-10T12:21:11;1.30;99.90
35613;DHT22;22054;51.646;7.078;2022-12-10T12:24:03;1.30;99.90
35613;DHT22;22054;51.646;7.078;2022-12-10T12:27:01;1.40;99.90
35613;DHT22;22054;51.646;7.078;2022-12-10T12:29:41;1.50;99.90
35613;DHT22;22054;51.646;7.078;2022-12-10T12:32:26;1.50;99.90
35613;DHT22;22054;51.646;7.078;2022-12-10T12:37:55;1.60;99.90
35613;DHT22;22054;51.646;7.078;2022-12-10T12:40:34;1.60;99.90
35613;DHT22;22054;51.646;7.078;2022-12-10T12:46:02;1.60;99.90
35613;DHT22;22054;51.646;7.078;2022-12-10T12:48:42;1.60;99.90
35613;DHT22;22054;51.646;7.078;2022-12-10T12:51:48;1.50;99.90
35613;DHT22;22054;51.646;7.078;2022-12-10T12:54:18;1.50;99.90
35613;DHT22;22054;51.646;7.078;2022-12-10T12:57:07;1.50;99.90
35613;DHT22;22054;51.646;7.078;2022-12-10T13:00:15;1.50;99.90
35613;DHT22;22054;51.646;7.078;2022-12-10T13:03:04;1.50;99.90
35613;DHT22;22054;51.646;7.078;2022-12-10T13:05:39;1.50;99.90
35613;DHT22;22054;51.646;7.078;2022-12-10T13:13:39;1.40;99.90
35613;DHT22;22054;51.646;7.078;2022-12-10T13:16:34;1.50;99.90
35613;DHT22;22054;51.646;7.078;2022-12-10T13:22:06;1.50;99.90
35613;DHT22;22054;51.646;7.078;2022-12-10T13:27:19;1.60;99.90
35613;DHT22;22054;51.646;7.078;2022-12-10T13:35:18;1.60;99.90
35613;DHT22;22054;51.646;7.078;2022-12-10T13:43:28;1.60;99.90
35613;DHT22;22054;51.646;7.078;2022-12-10T13:46:30;1.40;99.90
35613;DHT22;22054;51.646;7.078;2022-12-10T13:49:02;1.30;99.90
35613;DHT22;22054;51.646;7.078;2022-12-10T13:52:06;1.30;99.90
35613;DHT22;22054;51.646;7.078;2022-12-10T13:55:26;1.40;99.90
35613;DHT22;22054;51.646;7.078;2022-12-10T13:57:56;1.40;99.90
35613;DHT22;22054;51.646;7.078;2022-12-10T14:00:38;1.40;99.90
35613;DHT22;22054;51.646;7.078;2022-12-10T14:06:22;1.40;99.90
35613;DHT22;22054;51.646;7.078;2022-12-10T14:09:15;1.40;99.90
35613;DHT22;22054;51.646;7.078;2022-12-10T14:11:55;1.50;99.90
35613;DHT22;22054;51.646;7.078;2022-12-10T14:14:47;1.50;99.90
35613;DHT22;22054;51.646;7.078;2022-12-10T14:17:19;1.50;99.90
35613;DHT22;22054;51.646;7.078;2022-12-10T14:19:48;1.60;99.90
35613;DHT22;22054;51.646;7.078;2022-12-10T14:22:29;1.50;99.90
35613;DHT22;22054;51.646;7.078;2022-12-10T14:25:00;1.60;99.90
35613;DHT22;22054;51.646;7.078;2022-12-10T14:27:27;1.60;99.90
35613;DHT22;22054;51.646;7.078;2022-12-10T14:30:03;1.50;99.90
35613;DHT22;22054;51.646;7.078;2022-12-10T14:32:37;1.50;99.90
35613;DHT22;22054;51.646;7.078;2022-12-10T14:35:05;1.60;99.90
35613;DHT22;22054;51.646;7.078;2022-12-10T14:37:35;1.60;99.90
35613;DHT22;22054;51.646;7.078;2022-12-10T14:40:05;1.50;99.90
35613;DHT22;22054;51.646;7.078;2022-12-10T14:42:32;1.60;99.90
35613;DHT22;22054;51.646;7.078;2022-12-10T14:45:05;1.60;99.90
35613;DHT22;22054;51.646;7.078;2022-12-10T14:47:36;1.70;99.90
35613;DHT22;22054;51.646;7.078;2022-12-10T14:50:04;1.80;99.90
35613;DHT22;22054;51.646;7.078;2022-12-10T14:52:40;1.70;99.90
35613;DHT22;22054;51.646;7.078;2022-12-10T14:55:19;1.70;99.90
35613;DHT22;22054;51.646;7.078;2022-12-10T14:57:54;1.70;99.90
35613;DHT22;22054;51.646;7.078;2022-12-10T15:00:22;1.60;99.90
35613;DHT22;22054;51.646;7.078;2022-12-10T15:03:02;1.60;99.90
35613;DHT22;22054;51.646;7.078;2022-12-10T15:05:33;1.50;99.90
35613;DHT22;22054;51.646;7.078;2022-12-10T15:08:13;1.50;99.90
35613;DHT22;22054;51.646;7.078;2022-12-10T15:10:43;1.60;99.90
35613;DHT22;22054;51.646;7.078;2022-12-10T15:13:32;1.60;99.90
35613;DHT22;22054;51.646;7.078;2022-12-10T15:16:00;1.60;99.90
35613;DHT22;22054;51.646;7.078;2022-12-10T15:18:31;1.60;99.90
35613;DHT22;22054;51.646;7.078;2022-12-10T15:21:21;1.60;99.90
35613;DHT22;22054;51.646;7.078;2022-12-10T15:23:49;1.60;99.90
35613;DHT22;22054;51.646;7.078;2022-12-10T15:26:19;1.70;99.90
35613;DHT22;22054;51.646;7.078;2022-12-10T15:28:49;1.60;99.90
35613;DHT22;22054;51.646;7.078;2022-12-10T15:34:05;1.70;99.90
35613;DHT22;22054;51.646;7.078;2022-12-10T15:36:41;1.60;99.90
35613;DHT22;22054;51.646;7.078;2022-12-10T15:39:20;1.70;99.90
35613;DHT22;22054;51.646;7.078;2022-12-10T15:41:56;1.60;99.90
35613;DHT22;22054;51.646;7.078;2022-12-10T15:49:30;1.60;99.90
35613;DHT22;22054;51.646;7.078;2022-12-10T15:51:57;1.60;99.90
35613;DHT22;22054;51.646;7.078;2022-12-10T15:54:38;1.60;99.90
35613;DHT22;22054;51.646;7.078;2022-12-10T15:57:31;1.60;99.90
35613;DHT22;22054;51.646;7.078;2022-12-10T16:00:07;1.70;99.90
35613;DHT22;22054;51.646;7.078;2022-12-10T16:02:35;1.60;99.90
35613;DHT22;22054;51.646;7.078;2022-12-10T16:05:12;1.60;99.90
35613;DHT22;22054;51.646;7.078;2022-12-10T16:07:39;1.70;99.90
35613;DHT22;22054;51.646;7.078;2022-12-10T16:10:05;1.70;99.90
35613;DHT22;22054;51.646;7.078;2022-12-10T16:12:32;1.70;99.90
35613;DHT22;22054;51.646;7.078;2022-12-10T16:15:01;1.70;99.90
35613;DHT22;22054;51.646;7.078;2022-12-10T16:17:27;1.70;99.90
35613;DHT22;22054;51.646;7.078;2022-12-10T16:19:59;1.90;99.90
35613;DHT22;22054;51.646;7.078;2022-12-10T16:22:28;1.80;99.90
35613;DHT22;22054;51.646;7.078;2022-12-10T16:24:54;1.70;99.90
35613;DHT22;22054;51.646;7.078;2022-12-10T16:27:20;1.70;99.90
35613;DHT22;22054;51.646;7.078;2022-12-10T16:29:45;1.50;99.90
35613;DHT22;22054;51.646;7.078;2022-12-10T16:32:12;1.50;99.90
35613;DHT22;22054;51.646;7.078;2022-12-10T16:34:39;1.50;99.90
35613;DHT22;22054;51.646;7.078;2022-12-10T16:37:05;1.50;99.90
35613;DHT22;22054;51.646;7.078;2022-12-10T16:39:31;1.50;99.90
35613;DHT22;22054;51.646;7.078;2022-12-10T16:41:57;1.50;99.90
35613;DHT22;22054;51.646;7.078;2022-12-10T16:44:23;1.50;99.90
35613;DHT22;22054;51.646;7.078;2022-12-10T16:46:49;1.50;99.90
35613;DHT22;22054;51.646;7.078;2022-12-10T16:49:15;1.50;99.90
35613;DHT22;22054;51.646;7.078;2022-12-10T16:51:41;1.60;99.90
35613;DHT22;22054;51.646;7.078;2022-12-10T16:54:12;1.70;99.90
35613;DHT22;22054;51.646;7.078;2022-12-10T16:56:39;1.60;99.90
35613;DHT22;22054;51.646;7.078;2022-12-10T16:59:07;1.60;99.90
35613;DHT22;22054;51.646;7.078;2022-12-10T17:01:35;1.50;99.90
35613;DHT22;22054;51.646;7.078;2022-12-10T17:04:04;1.60;99.90
35613;DHT22;22054;51.646;7.078;2022-12-10T17:06:30;1.70;99.90
35613;DHT22;22054;51.646;7.078;2022-12-10T17:08:56;1.70;99.90
35613;DHT22;22054;51.646;7.078;2022-12-10T17:11:28;1.80;99.90
35613;DHT22;22054;51.646;7.078;2022-12-10T17:14:23;1.80;99.90
35613;DHT22;22054;51.646;7.078;2022-12-10T17:16:53;1.90;99.90
35613;DHT22;22054;51.646;7.078;2022-12-10T17:19:22;1.80;99.90
35613;DHT22;22054;51.646;7.078;2022-12-10T17:21:59;1.80;99.90
35613;DHT22;22054;51.646;7.078;2022-12-10T17:24:25;1.80;99.90
35613;DHT22;22054;51.646;7.078;2022-12-10T17:26:52;1.70;99.90
35613;DHT22;22054;51.646;7.078;2022-12-10T17:29:29;1.70;99.90
35613;DHT22;22054;51.646;7.078;2022-12-10T17:31:58;1.70;99.90
35613;DHT22;22054;51.646;7.078;2022-12-10T17:34:23;1.70;99.90
35613;DHT22;22054;51.646;7.078;2022-12-10T17:36:50;1.70;99.90
35613;DHT22;22054;51.646;7.078;2022-12-10T17:39:19;1.70;99.90
35613;DHT22;22054;51.646;7.078;2022-12-10T17:41:46;1.70;99.90
35613;DHT22;22054;51.646;7.078;2022-12-10T17:44:12;1.60;99.90
35613;DHT22;22054;51.646;7.078;2022-12-10T17:46:38;1.50;99.90
35613;DHT22;22054;51.646;7.078;2022-12-10T17:49:04;1.60;99.90
35613;DHT22;22054;51.646;7.078;2022-12-10T17:51:30;1.70;99.90